Time;durP1;ratioP1;P1;durP2;ratioP2;P2;SDS_P1;SDS_P2;PMS_P1;PMS_P2;Temp;Humidity;BMP_temperature;BMP_pressure;BME280_temperature;BME280_humidity;BME280_pressure;Samples;Min_cycle;Max_cycle;Signal;HPM_P1;HPM_P2
2022/11/21 00:01:00;;;;;;;8.67;2.30;;;9.60;99.90;;;;;;5047609;28;20173;-74
2022/11/21 00:03:26;;;;;;;8.17;2.57;;;9.60;99.90;;;;;;5037589;28;20178;-72
2022/11/21 00:05:52;;;;;;;7.53;2.27;;;9.60;99.90;;;;;;5038919;28;20178;-74
2022/11/21 00:08:20;;;;;;;5.97;1.97;;;9.70;99.90;;;;;;5048298;28;20201;-72
2022/11/21 00:10:46;;;;;;;5.60;1.80;;;9.60;99.90;;;;;;5054572;28;20200;-74
2022/11/21 00:13:17;;;;;;;7.17;2.37;;;9.60;99.90;;;;;;5065470;28;20181;-74
2022/11/21 00:15:48;;;;;;;7.53;2.20;;;9.60;99.90;;;;;;5042315;28;20228;-73
2022/11/21 00:18:17;;;;;;;9.00;2.40;;;9.70;99.90;;;;;;5041059;28;20194;-73
2022/11/21 00:20:45;;;;;;;6.83;2.20;;;9.60;99.90;;;;;;5060490;28;20171;-74
2022/11/21 00:23:13;;;;;;;6.93;2.20;;;9.60;99.90;;;;;;5043569;28;20178;-73
2022/11/21 00:25:39;;;;;;;9.00;2.07;;;9.60;99.90;;;;;;5054144;28;20177;-74
2022/11/21 00:28:05;;;;;;;7.43;2.30;;;9.70;99.90;;;;;;5052966;28;20246;-74
2022/11/21 00:30:30;;;;;;;6.17;1.90;;;9.70;99.90;;;;;;5053462;28;20196;-73
2022/11/21 00:33:01;;;;;;;8.90;2.67;;;9.70;99.90;;;;;;5046837;28;20184;-73
2022/11/21 00:35:27;;;;;;;7.43;2.17;;;9.70;99.90;;;;;;5042521;28;20201;-71
2022/11/21 00:37:53;;;;;;;7.63;2.80;;;9.70;99.90;;;;;;5044304;28;20419;-73
2022/11/21 00:40:19;;;;;;;6.27;2.10;;;9.70;99.90;;;;;;5041570;28;20213;-73
2022/11/21 00:42:47;;;;;;;7.33;2.10;;;9.70;99.90;;;;;;5040604;28;20192;-73
2022/11/21 00:45:12;;;;;;;6.50;2.33;;;9.80;99.90;;;;;;5053346;28;20258;-72
2022/11/21 00:47:40;;;;;;;8.70;2.17;;;9.80;99.90;;;;;;5051697;28;20264;-73
2022/11/21 00:50:06;;;;;;;8.27;2.27;;;9.80;99.90;;;;;;5051916;28;20268;-73
2022/11/21 00:52:34;;;;;;;7.55;2.08;;;9.80;99.90;;;;;;5049597;28;20301;-74
2022/11/21 00:55:00;;;;;;;7.60;2.10;;;9.80;99.90;;;;;;5042488;28;20200;-72
2022/11/21 00:57:26;;;;;;;7.10;2.20;;;9.80;99.90;;;;;;5050819;28;20206;-73
2022/11/21 00:59:51;;;;;;;8.05;2.28;;;9.80;99.90;;;;;;5049894;28;20273;-73
2022/11/21 01:02:20;;;;;;;4.73;1.73;;;9.80;99.90;;;;;;5050731;28;20174;-73
2022/11/21 01:04:45;;;;;;;4.05;1.50;;;9.80;99.90;;;;;;5040158;28;20174;-74
2022/11/21 01:07:13;;;;;;;5.35;1.77;;;9.80;99.90;;;;;;5055789;28;20279;-73
2022/11/21 01:09:39;;;;;;;8.30;2.23;;;9.80;99.90;;;;;;5044278;28;20181;-70
2022/11/21 01:12:05;;;;;;;6.17;2.07;;;9.80;99.90;;;;;;5043695;28;20170;-75
2022/11/21 01:14:30;;;;;;;9.63;2.37;;;9.80;99.90;;;;;;5043855;28;20193;-74
2022/11/21 01:16:56;;;;;;;8.37;2.30;;;9.70;99.90;;;;;;5041238;28;20193;-73
2022/11/21 01:19:22;;;;;;;7.50;2.23;;;9.80;99.90;;;;;;5041323;28;20231;-72
2022/11/21 01:21:49;;;;;;;5.93;1.75;;;9.80;99.90;;;;;;5049696;28;20174;-72
2022/11/21 01:24:15;;;;;;;4.20;1.83;;;9.70;99.90;;;;;;5048806;28;20219;-73
2022/11/21 01:26:49;;;;;;;5.73;2.10;;;9.70;99.90;;;;;;5051289;28;20283;-72
2022/11/21 01:29:17;;;;;;;6.50;2.10;;;9.60;99.90;;;;;;5040894;28;20181;-73
2022/11/21 01:31:43;;;;;;;8.50;2.30;;;9.60;99.90;;;;;;5044759;28;20180;-72
2022/11/21 01:34:08;;;;;;;6.37;1.73;;;9.60;99.90;;;;;;5043635;28;20201;-72
2022/11/21 01:36:34;;;;;;;4.47;1.87;;;9.50;99.90;;;;;;5058462;28;20207;-72
2022/11/21 01:39:03;;;;;;;5.73;1.80;;;9.50;99.90;;;;;;5043581;28;20254;-73
2022/11/21 01:41:32;;;;;;;4.23;1.63;;;9.50;99.90;;;;;;5049871;28;20520;-72
2022/11/21 01:43:59;;;;;;;5.07;1.80;;;9.50;99.90;;;;;;5050749;28;20174;-73
2022/11/21 01:46:27;;;;;;;4.57;1.93;;;9.50;99.90;;;;;;5055358;28;20281;-72
2022/11/21 01:49:01;;;;;;;4.93;1.90;;;9.50;99.90;;;;;;5040551;28;20184;-72
2022/11/21 01:51:39;;;;;;;3.50;1.40;;;9.50;99.90;;;;;;5044565;28;20174;-73
2022/11/21 01:54:27;;;;;;;6.87;1.90;;;9.40;99.90;;;;;;5051184;28;20255;-73
2022/11/21 01:57:23;;;;;;;8.27;2.00;;;9.40;99.90;;;;;;5045989;28;20181;-72
2022/11/21 02:00:06;;;;;;;4.63;1.90;;;9.40;99.90;;;;;;5038327;28;20225;-73
2022/11/21 02:02:35;;;;;;;4.43;1.80;;;9.40;99.90;;;;;;5038630;28;20178;-72
2022/11/21 02:05:07;;;;;;;4.47;1.70;;;9.40;99.90;;;;;;5039544;28;20189;-71
2022/11/21 02:07:37;;;;;;;4.93;1.93;;;9.30;99.90;;;;;;5048686;28;20256;-73
2022/11/21 02:10:06;;;;;;;5.20;1.80;;;9.30;99.90;;;;;;5050345;28;20182;-72
2022/11/21 02:12:48;;;;;;;8.30;2.10;;;9.30;99.90;;;;;;5044345;28;20178;-72
2022/11/21 02:15:15;;;;;;;5.70;1.80;;;9.30;99.90;;;;;;5045472;28;20224;-72
2022/11/21 02:17:42;;;;;;;6.10;1.93;;;9.30;99.90;;;;;;5042871;28;20194;-72
2022/11/21 02:20:11;;;;;;;4.10;1.70;;;9.30;99.90;;;;;;5044352;28;20262;-72
2022/11/21 02:23:05;;;;;;;4.70;1.90;;;9.30;99.90;;;;;;5045304;28;20204;-72
2022/11/21 02:25:38;;;;;;;5.03;1.50;;;9.30;99.90;;;;;;5000969;28;20189;-73
2022/11/21 02:28:06;;;;;;;5.50;1.90;;;9.30;99.90;;;;;;5047202;28;20296;-74
2022/11/21 02:30:35;;;;;;;6.37;1.90;;;9.20;99.90;;;;;;5050984;28;20189;-74
2022/11/21 02:33:01;;;;;;;3.50;1.63;;;9.20;99.90;;;;;;5049807;28;20186;-73
2022/11/21 02:35:29;;;;;;;4.83;1.60;;;9.20;99.90;;;;;;5047140;28;20287;-72
2022/11/21 02:38:06;;;;;;;3.63;1.50;;;9.20;99.90;;;;;;5041317;28;20228;-72
2022/11/21 02:40:41;;;;;;;3.47;1.53;;;9.20;99.90;;;;;;5045262;28;20185;-73
2022/11/21 02:43:18;;;;;;;3.73;1.60;;;9.10;99.90;;;;;;5035276;28;20191;-73
2022/11/21 02:45:45;;;;;;;4.87;1.60;;;9.10;99.90;;;;;;5039959;28;20165;-73
2022/11/21 02:48:14;;;;;;;4.63;1.60;;;9.10;99.90;;;;;;5054183;28;20208;-73
2022/11/21 02:50:43;;;;;;;5.77;1.50;;;9.00;99.90;;;;;;5053837;28;20190;-73
2022/11/21 02:53:13;;;;;;;2.80;1.20;;;9.00;99.90;;;;;;5051981;28;20181;-73
2022/11/21 02:55:39;;;;;;;2.77;1.33;;;9.00;99.90;;;;;;5043901;28;20202;-72
2022/11/21 02:58:07;;;;;;;3.13;1.37;;;8.90;99.90;;;;;;5054422;28;20193;-71
2022/11/21 03:00:35;;;;;;;3.50;1.60;;;8.90;99.90;;;;;;5045150;28;20225;-73
2022/11/21 03:03:01;;;;;;;5.30;1.80;;;8.90;99.90;;;;;;5052327;28;20177;-71
2022/11/21 03:05:31;;;;;;;4.10;1.40;;;8.90;99.90;;;;;;5037564;28;20178;-72
2022/11/21 03:08:02;;;;;;;4.93;1.53;;;8.80;99.90;;;;;;5047139;28;20238;-73
2022/11/21 03:10:27;;;;;;;5.27;1.37;;;8.80;99.90;;;;;;5040848;28;20249;-72
2022/11/21 03:12:59;;;;;;;2.77;1.20;;;8.80;99.90;;;;;;5049211;28;20274;-72
2022/11/21 03:15:29;;;;;;;5.03;1.53;;;8.80;99.90;;;;;;5034601;28;20177;-73
2022/11/21 03:17:55;;;;;;;4.10;1.40;;;8.70;99.90;;;;;;5045391;28;20225;-73
2022/11/21 03:20:21;;;;;;;4.47;1.43;;;8.80;99.90;;;;;;5058444;28;20196;-72
2022/11/21 03:22:46;;;;;;;3.40;1.50;;;8.80;99.90;;;;;;5056796;28;20264;-73
2022/11/21 03:25:12;;;;;;;5.07;1.60;;;8.80;99.90;;;;;;5052768;28;20188;-73
2022/11/21 03:27:40;;;;;;;4.23;1.47;;;8.80;99.90;;;;;;5051239;28;20178;-72
2022/11/21 03:30:09;;;;;;;4.13;1.40;;;8.80;99.90;;;;;;5045675;28;20608;-73
2022/11/21 03:32:34;;;;;;;3.87;1.27;;;8.80;99.90;;;;;;5049422;28;20274;-73
2022/11/21 03:35:00;;;;;;;3.77;1.30;;;8.80;99.90;;;;;;5046845;28;20245;-73
2022/11/21 03:37:30;;;;;;;5.23;1.57;;;8.80;99.90;;;;;;5051964;28;20219;-73
2022/11/21 03:39:56;;;;;;;3.37;1.27;;;8.80;99.90;;;;;;5052593;28;20209;-73
2022/11/21 03:42:21;;;;;;;4.23;1.30;;;8.80;99.90;;;;;;5045494;28;20186;-74
2022/11/21 03:44:47;;;;;;;4.73;1.40;;;8.80;99.90;;;;;;5047045;28;20220;-73
2022/11/21 03:47:17;;;;;;;6.23;1.50;;;8.80;99.90;;;;;;5044834;28;20197;-73
2022/11/21 03:49:43;;;;;;;3.57;1.30;;;8.80;99.90;;;;;;5046950;28;20178;-74
2022/11/21 03:52:10;;;;;;;4.70;1.40;;;8.90;99.90;;;;;;5042060;28;20244;-73
2022/11/21 03:54:38;;;;;;;2.77;1.17;;;8.90;99.90;;;;;;5050596;28;20178;-73
2022/11/21 03:57:04;;;;;;;2.30;1.30;;;8.90;99.90;;;;;;5048812;28;20237;-73
2022/11/21 03:59:32;;;;;;;4.03;1.60;;;8.90;99.90;;;;;;5055045;28;20307;-72
2022/11/21 04:01:57;;;;;;;2.83;1.20;;;8.90;99.90;;;;;;5048102;28;20181;-73
2022/11/21 04:04:25;;;;;;;4.63;1.50;;;8.90;99.90;;;;;;5047147;28;20235;-72
2022/11/21 04:06:53;;;;;;;4.77;1.57;;;8.90;99.90;;;;;;5043866;28;20177;-74
2022/11/21 04:09:19;;;;;;;2.97;1.47;;;8.90;99.90;;;;;;5051528;28;20182;-73
2022/11/21 04:11:44;;;;;;;5.17;1.63;;;9.00;99.90;;;;;;5042128;28;20188;-73
2022/11/21 04:14:12;;;;;;;3.97;1.57;;;8.90;99.90;;;;;;5050648;28;20184;-73
2022/11/21 04:16:40;;;;;;;3.17;1.40;;;8.90;99.90;;;;;;5047565;28;20186;-73
2022/11/21 04:19:05;;;;;;;2.57;1.23;;;9.00;99.90;;;;;;5046987;28;20202;-72
2022/11/21 04:21:31;;;;;;;3.87;1.53;;;8.90;99.90;;;;;;5050389;28;20181;-74
2022/11/21 04:23:59;;;;;;;4.33;1.33;;;8.90;99.90;;;;;;5050518;28;20177;-73
2022/11/21 04:26:24;;;;;;;3.70;1.30;;;8.90;99.90;;;;;;5048021;28;20202;-73
2022/11/21 04:28:50;;;;;;;4.90;1.50;;;8.80;99.90;;;;;;5041474;28;20193;-73
2022/11/21 04:31:18;;;;;;;3.63;1.43;;;8.80;99.90;;;;;;5053763;28;20258;-74
2022/11/21 04:33:43;;;;;;;3.70;1.30;;;8.70;99.90;;;;;;5053842;28;20196;-74
2022/11/21 04:36:09;;;;;;;5.50;1.87;;;8.70;99.90;;;;;;5039021;28;20185;-73
2022/11/21 04:38:35;;;;;;;3.13;1.30;;;8.60;99.90;;;;;;5044488;28;20228;-73
2022/11/21 04:41:01;;;;;;;2.47;1.47;;;8.70;99.90;;;;;;5042409;28;20272;-72
2022/11/21 04:43:28;;;;;;;3.43;1.53;;;8.60;99.90;;;;;;5053299;28;20208;-72
2022/11/21 04:45:56;;;;;;;3.80;1.40;;;8.50;99.90;;;;;;5051195;28;20194;-72
2022/11/21 04:48:22;;;;;;;2.63;1.30;;;8.50;99.90;;;;;;5052476;28;20190;-73
2022/11/21 04:50:52;;;;;;;2.40;1.43;;;8.50;99.90;;;;;;5056565;28;20238;-73
2022/11/21 04:53:18;;;;;;;3.83;1.33;;;8.50;99.90;;;;;;5049537;28;20178;-73
2022/11/21 04:55:43;;;;;;;2.97;1.47;;;8.50;99.90;;;;;;5044736;28;20185;-72
2022/11/21 04:58:09;;;;;;;4.03;1.50;;;8.50;99.90;;;;;;5039719;28;20218;-73
2022/11/21 05:00:34;;;;;;;4.57;1.87;;;8.40;99.90;;;;;;5049255;28;20188;-74
2022/11/21 05:03:02;;;;;;;3.20;1.80;;;8.40;99.90;;;;;;5056813;28;20227;-74
2022/11/21 05:05:27;;;;;;;3.83;1.93;;;8.40;99.90;;;;;;5044460;28;20181;-73
2022/11/21 05:07:55;;;;;;;3.73;1.60;;;8.40;99.90;;;;;;5048599;28;20185;-72
2022/11/21 05:10:23;;;;;;;3.07;1.67;;;8.40;99.90;;;;;;5039817;28;20240;-72
2022/11/21 05:15:41;;;;;;;4.00;1.40;;;8.40;99.90;;;;;;5056499;28;20268;-73
2022/11/21 05:18:08;;;;;;;2.77;1.37;;;8.40;99.90;;;;;;5049036;28;20296;-73
2022/11/21 05:20:36;;;;;;;2.77;1.70;;;8.50;99.90;;;;;;5051305;28;20182;-73
2022/11/21 05:23:04;;;;;;;3.47;1.67;;;8.50;99.90;;;;;;5037024;28;20269;-71
2022/11/21 05:25:30;;;;;;;4.80;1.57;;;8.50;99.90;;;;;;5035481;28;20182;-73
2022/11/21 05:27:55;;;;;;;4.23;1.73;;;8.50;99.90;;;;;;5042302;28;20314;-74
2022/11/21 05:30:21;;;;;;;4.60;1.80;;;8.50;99.90;;;;;;5049815;28;20220;-72
2022/11/21 05:32:49;;;;;;;2.90;1.60;;;8.50;99.90;;;;;;5042534;28;20184;-73
2022/11/21 05:35:16;;;;;;;3.53;1.60;;;8.50;99.90;;;;;;5072192;28;20247;-73
2022/11/21 05:37:42;;;;;;;2.97;1.67;;;8.50;99.90;;;;;;5050204;28;20190;-73
2022/11/21 05:40:08;;;;;;;3.43;1.70;;;8.40;99.90;;;;;;5035364;28;20255;-74
2022/11/21 05:45:24;;;;;;;3.47;1.87;;;8.40;99.90;;;;;;5056380;28;20299;-73
2022/11/21 05:47:50;;;;;;;3.67;1.83;;;8.50;99.90;;;;;;5053977;28;20217;-74
2022/11/21 05:50:16;;;;;;;3.23;1.77;;;8.50;99.90;;;;;;5042693;28;20268;-73
2022/11/21 05:52:41;;;;;;;4.57;1.93;;;8.40;99.90;;;;;;5049694;28;20182;-72
2022/11/21 05:55:10;;;;;;;4.23;1.97;;;8.40;99.90;;;;;;5050167;28;20521;-72
2022/11/21 05:57:35;;;;;;;3.90;2.07;;;8.50;99.90;;;;;;5057962;28;20209;-72
2022/11/21 06:00:01;;;;;;;4.77;1.87;;;8.50;99.90;;;;;;5049718;28;20197;-73
2022/11/21 06:05:10;;;;;;;3.83;2.30;;;8.50;99.90;;;;;;5052990;28;20191;-76
2022/11/21 06:07:36;;;;;;;5.23;2.30;;;8.60;99.90;;;;;;5049775;28;20178;-75
2022/11/21 06:10:04;;;;;;;4.30;2.13;;;8.50;99.90;;;;;;5045557;28;20169;-75
2022/11/21 06:12:30;;;;;;;3.93;2.20;;;8.60;99.90;;;;;;5053977;28;20263;-76
2022/11/21 06:14:56;;;;;;;2.57;2.00;;;8.60;99.90;;;;;;5051616;28;20169;-76
2022/11/21 06:17:21;;;;;;;3.67;2.20;;;8.60;99.90;;;;;;5057395;28;20216;-74
2022/11/21 06:19:47;;;;;;;3.50;2.23;;;8.60;99.90;;;;;;5047534;28;20237;-77
2022/11/21 06:22:12;;;;;;;3.80;2.20;;;8.60;99.90;;;;;;5046209;28;20174;-76
2022/11/21 06:24:38;;;;;;;4.83;2.17;;;8.60;99.90;;;;;;5051346;28;20285;-75
2022/11/21 06:27:04;;;;;;;2.80;2.30;;;8.60;99.90;;;;;;5035137;28;20173;-75
2022/11/21 06:29:29;;;;;;;4.90;2.20;;;8.60;99.90;;;;;;5041189;28;20347;-75
2022/11/21 06:31:57;;;;;;;2.97;2.07;;;8.60;99.90;;;;;;5053881;28;20248;-76
2022/11/21 06:34:25;;;;;;;3.17;2.20;;;8.60;99.90;;;;;;5054149;28;20192;-74
2022/11/21 06:36:53;;;;;;;2.87;2.00;;;8.60;99.90;;;;;;5046430;28;20196;-74
2022/11/21 06:39:23;;;;;;;2.90;2.00;;;8.60;99.90;;;;;;5046697;28;20201;-75
2022/11/21 06:41:51;;;;;;;3.53;2.10;;;8.70;99.90;;;;;;5050650;28;20224;-74
2022/11/21 06:44:20;;;;;;;3.23;2.07;;;8.60;99.90;;;;;;5039238;28;20257;-75
2022/11/21 06:46:46;;;;;;;3.93;2.10;;;8.60;99.90;;;;;;5037827;28;20184;-74
2022/11/21 06:49:11;;;;;;;3.03;2.07;;;8.60;99.90;;;;;;5044569;28;20174;-75
2022/11/21 06:51:37;;;;;;;3.40;1.90;;;8.60;99.90;;;;;;5039342;28;20182;-75
2022/11/21 06:54:05;;;;;;;4.33;2.20;;;8.60;99.90;;;;;;5048965;28;20216;-75
2022/11/21 06:56:31;;;;;;;2.60;2.17;;;8.60;99.90;;;;;;5038397;28;20241;-75
2022/11/21 06:58:57;;;;;;;3.87;2.10;;;8.70;99.90;;;;;;5050560;28;20285;-75
2022/11/21 07:01:24;;;;;;;3.43;2.10;;;8.60;99.90;;;;;;5041241;28;20174;-75
2022/11/21 07:03:51;;;;;;;3.27;2.03;;;8.60;99.90;;;;;;5047702;28;20169;-75
2022/11/21 07:06:17;;;;;;;4.43;2.00;;;8.60;99.90;;;;;;5042921;28;20204;-75
2022/11/21 07:08:43;;;;;;;2.80;1.83;;;8.60;99.90;;;;;;5034253;28;20177;-75
2022/11/21 07:11:13;;;;;;;4.27;2.30;;;8.50;99.90;;;;;;5033934;28;20178;-75
2022/11/21 07:13:46;;;;;;;3.67;2.07;;;8.50;99.90;;;;;;5038332;28;20189;-74
2022/11/21 07:16:15;;;;;;;3.40;2.10;;;8.50;99.90;;;;;;5051023;28;20200;-75
2022/11/21 07:18:41;;;;;;;2.93;2.00;;;8.50;99.90;;;;;;5047251;28;20263;-75
2022/11/21 07:21:10;;;;;;;2.43;2.00;;;8.50;99.90;;;;;;5034364;28;20262;-75
2022/11/21 07:23:35;;;;;;;3.30;2.07;;;8.40;99.90;;;;;;5048910;28;20192;-75
2022/11/21 07:26:05;;;;;;;4.70;2.50;;;8.50;99.90;;;;;;5045525;28;20285;-75
2022/11/21 07:28:34;;;;;;;4.20;2.13;;;8.40;99.90;;;;;;5053795;28;20173;-75
2022/11/21 07:31:03;;;;;;;2.93;2.27;;;8.40;99.90;;;;;;5053730;28;20205;-76
2022/11/21 07:33:33;;;;;;;2.27;2.07;;;8.40;99.90;;;;;;5053308;28;20185;-75
2022/11/21 07:36:01;;;;;;;3.87;2.33;;;8.40;99.90;;;;;;5047814;28;20192;-76
2022/11/21 07:38:29;;;;;;;2.93;2.30;;;8.40;99.90;;;;;;5034017;28;20206;-76
2022/11/21 07:41:00;;;;;;;3.07;2.57;;;8.40;99.90;;;;;;5034093;28;20207;-76
2022/11/21 07:43:25;;;;;;;2.90;2.23;;;8.40;99.90;;;;;;5034030;28;20182;-76
2022/11/21 07:45:55;;;;;;;3.67;2.53;;;8.40;99.90;;;;;;5040647;28;20193;-75
2022/11/21 07:48:20;;;;;;;3.20;2.30;;;8.40;99.90;;;;;;5034764;28;20228;-74
2022/11/21 07:50:48;;;;;;;3.50;2.43;;;8.40;99.90;;;;;;5035006;28;20198;-75
2022/11/21 07:53:14;;;;;;;4.10;2.27;;;8.40;99.90;;;;;;5052714;28;20244;-76
2022/11/21 07:55:40;;;;;;;4.03;2.60;;;8.40;99.90;;;;;;5033380;28;20552;-76
2022/11/21 07:58:10;;;;;;;3.50;2.63;;;8.50;99.90;;;;;;5052391;28;20219;-76
2022/11/21 08:00:41;;;;;;;3.47;2.53;;;8.50;99.90;;;;;;5036981;28;20174;-76
2022/11/21 08:03:11;;;;;;;3.97;2.23;;;8.40;99.90;;;;;;5055199;28;20197;-76
2022/11/21 08:05:38;;;;;;;4.00;2.53;;;8.50;99.90;;;;;;5054063;28;20178;-74
2022/11/21 08:08:07;;;;;;;4.67;2.93;;;8.50;99.90;;;;;;5041982;28;20185;-76
2022/11/21 08:10:36;;;;;;;3.40;2.50;;;8.50;99.90;;;;;;5049279;28;20436;-76
2022/11/21 08:13:01;;;;;;;3.23;2.57;;;8.60;99.90;;;;;;5043447;28;20182;-76
2022/11/21 08:15:27;;;;;;;5.07;2.97;;;8.50;99.90;;;;;;5038445;28;20250;-76
2022/11/21 08:17:52;;;;;;;4.60;2.80;;;8.60;99.90;;;;;;5047930;28;20186;-76
2022/11/21 08:20:18;;;;;;;3.47;3.10;;;8.60;99.90;;;;;;5043814;28;20257;-75
2022/11/21 08:22:46;;;;;;;4.20;2.60;;;8.70;99.90;;;;;;5037137;28;20170;-76
2022/11/21 08:25:11;;;;;;;3.87;2.80;;;8.70;99.90;;;;;;5045027;28;20171;-75
2022/11/21 08:27:41;;;;;;;3.57;2.50;;;8.70;99.90;;;;;;5037552;28;20189;-75
2022/11/21 08:30:09;;;;;;;4.23;2.63;;;8.70;99.90;;;;;;5044448;28;20178;-74
2022/11/21 08:32:35;;;;;;;3.90;2.80;;;8.70;99.90;;;;;;5042302;28;20224;-75
2022/11/21 08:35:03;;;;;;;3.23;2.33;;;8.80;99.90;;;;;;5046239;28;20201;-74
2022/11/21 08:37:33;;;;;;;2.53;1.87;;;8.80;99.90;;;;;;5055849;28;20181;-76
2022/11/21 08:40:01;;;;;;;2.83;1.80;;;8.80;99.90;;;;;;5039746;28;20189;-75
2022/11/21 08:42:27;;;;;;;3.07;2.20;;;8.90;99.90;;;;;;5038668;28;20178;-76
2022/11/21 08:44:54;;;;;;;2.57;2.03;;;8.90;99.90;;;;;;5050494;28;20177;-75
2022/11/21 08:47:22;;;;;;;2.30;1.80;;;8.90;99.90;;;;;;5038884;28;20212;-75
2022/11/21 08:49:50;;;;;;;3.00;1.80;;;9.00;99.90;;;;;;5036491;28;20227;-76
2022/11/21 08:52:16;;;;;;;2.10;1.67;;;9.00;99.90;;;;;;5056015;28;20169;-76
2022/11/21 08:54:45;;;;;;;2.60;1.63;;;9.00;99.90;;;;;;5056288;28;20173;-75
2022/11/21 08:57:11;;;;;;;2.97;1.80;;;9.10;99.90;;;;;;5049497;28;20295;-76
2022/11/21 08:59:37;;;;;;;2.47;1.60;;;9.10;99.90;;;;;;5038174;28;20205;-75
2022/11/21 09:02:04;;;;;;;2.00;1.57;;;9.20;99.90;;;;;;5051681;28;20227;-75
2022/11/21 09:04:32;;;;;;;3.43;1.47;;;9.20;99.90;;;;;;5052185;28;20173;-74
2022/11/21 09:07:03;;;;;;;3.07;1.87;;;9.20;99.90;;;;;;5055340;28;20174;-76
2022/11/21 09:09:29;;;;;;;2.40;1.63;;;9.30;99.90;;;;;;5051129;28;20189;-74
2022/11/21 09:11:54;;;;;;;2.77;1.50;;;9.30;99.90;;;;;;5042231;28;20198;-75
2022/11/21 09:20:05;;;;;;;2.00;1.80;;;9.70;99.90;;;;;;5047627;28;20187;-75
2022/11/21 09:22:32;;;;;;;1.60;1.50;;;10.20;99.90;;;;;;5056533;28;20181;-76
2022/11/21 09:25:00;;;;;;;2.30;1.38;;;10.60;99.90;;;;;;5056163;28;20201;-74
2022/11/21 09:27:26;;;;;;;1.90;1.50;;;11.00;99.90;;;;;;5054369;28;20332;-76
2022/11/21 09:29:51;;;;;;;2.35;1.30;;;11.40;99.90;;;;;;5054580;28;20233;-75
2022/11/21 09:32:17;;;;;;;1.98;1.40;;;11.50;99.90;;;;;;5041744;28;20190;-76
2022/11/21 09:34:45;;;;;;;1.90;1.30;;;11.70;99.90;;;;;;5036162;28;20165;-76
2022/11/21 09:37:18;;;;;;;2.05;1.45;;;11.90;99.90;;;;;;5050550;28;20223;-76
2022/11/21 09:39:45;;;;;;;2.03;1.40;;;12.00;99.90;;;;;;5055794;28;20216;-75
2022/11/21 09:42:34;;;;;;;2.55;1.52;;;12.00;99.90;;;;;;5040335;28;20174;-75
2022/11/21 09:45:18;;;;;;;1.38;1.15;;;12.10;99.90;;;;;;5052438;28;20174;-74
2022/11/21 09:47:48;;;;;;;1.05;0.95;;;12.10;99.90;;;;;;5046509;28;20166;-76
2022/11/21 09:50:13;;;;;;;1.45;1.00;;;12.10;99.90;;;;;;5053199;28;20204;-75
2022/11/21 09:53:02;;;;;;;1.23;1.00;;;12.10;99.90;;;;;;5052923;28;20208;-74
2022/11/21 09:55:33;;;;;;;1.15;0.80;;;12.10;99.90;;;;;;5056298;28;20260;-76
2022/11/21 09:58:08;;;;;;;1.13;0.90;;;12.10;99.90;;;;;;5045246;28;20202;-76
2022/11/21 10:00:34;;;;;;;1.90;0.90;;;12.10;99.90;;;;;;5036856;28;20209;-76
2022/11/21 10:03:03;;;;;;;0.98;0.80;;;12.10;99.90;;;;;;5046141;28;20298;-75
2022/11/21 10:05:43;;;;;;;1.60;1.02;;;12.10;99.90;;;;;;5053579;28;20182;-74
2022/11/21 10:08:35;;;;;;;0.95;0.80;;;12.00;99.90;;;;;;5055511;28;20360;-76
2022/11/21 10:11:23;;;;;;;1.00;0.80;;;11.90;99.90;;;;;;5055145;28;20298;-76
2022/11/21 10:13:51;;;;;;;1.30;1.00;;;11.90;99.90;;;;;;5041257;28;20300;-75
2022/11/21 10:16:39;;;;;;;1.20;0.70;;;11.80;99.90;;;;;;5055311;28;20177;-76
2022/11/21 10:19:10;;;;;;;1.27;0.60;;;11.70;99.90;;;;;;5055858;28;20221;-74
2022/11/21 10:21:55;;;;;;;0.85;0.82;;;11.70;99.90;;;;;;5054930;28;20217;-77
2022/11/21 10:24:21;;;;;;;0.90;0.82;;;11.80;99.90;;;;;;5044428;28;20194;-76
2022/11/21 10:27:00;;;;;;;1.02;0.80;;;11.80;99.90;;;;;;5037395;28;20201;-75
2022/11/21 10:29:42;;;;;;;1.33;0.68;;;11.90;99.90;;;;;;5054871;28;20196;-76
2022/11/21 10:32:23;;;;;;;0.80;0.80;;;11.90;99.90;;;;;;5055142;28;20211;-77
2022/11/21 10:34:52;;;;;;;1.25;0.77;;;11.90;99.90;;;;;;5051152;28;20174;-76
2022/11/21 10:37:30;;;;;;;1.02;0.85;;;12.00;99.90;;;;;;5035486;28;20170;-74
2022/11/21 10:40:13;;;;;;;0.90;0.65;;;12.00;99.90;;;;;;5038072;28;20209;-76
2022/11/21 10:42:56;;;;;;;1.50;0.70;;;12.00;99.90;;;;;;5035769;28;20174;-75
2022/11/21 10:45:26;;;;;;;1.80;0.90;;;11.90;99.90;;;;;;5035445;28;20197;-76
2022/11/21 10:47:54;;;;;;;2.22;1.02;;;11.90;99.90;;;;;;5051982;28;20193;-71
2022/11/21 10:50:44;;;;;;;1.42;0.82;;;11.90;99.90;;;;;;5052293;28;20178;-76
2022/11/21 10:56:24;;;;;;;2.25;0.90;;;11.80;99.90;;;;;;5054018;28;20209;-76
2022/11/21 10:58:59;;;;;;;1.00;0.90;;;11.80;99.90;;;;;;5034626;28;20237;-77
2022/11/21 11:01:26;;;;;;;0.95;0.75;;;11.80;99.90;;;;;;5047787;28;20380;-75
2022/11/21 11:04:10;;;;;;;0.93;0.70;;;11.70;99.90;;;;;;5038172;28;20173;-75
2022/11/21 11:06:38;;;;;;;2.90;0.90;;;11.70;99.90;;;;;;5051214;28;20166;-75
2022/11/21 11:09:05;;;;;;;1.10;0.90;;;11.70;99.90;;;;;;5034929;28;20189;-75
2022/11/21 11:11:33;;;;;;;0.98;0.80;;;11.80;99.90;;;;;;5034588;28;20201;-76
2022/11/21 11:14:00;;;;;;;1.35;0.80;;;11.90;99.90;;;;;;5046056;28;20177;-76
2022/11/21 11:16:28;;;;;;;1.40;0.70;;;12.00;99.90;;;;;;5054460;28;20238;-74
2022/11/21 11:19:18;;;;;;;1.10;0.82;;;12.20;99.90;;;;;;5054588;28;20201;-75
2022/11/21 11:21:45;;;;;;;1.13;0.60;;;12.20;99.90;;;;;;5054076;28;20165;-75
2022/11/21 11:24:10;;;;;;;2.58;0.60;;;12.20;99.90;;;;;;5053856;28;20197;-76
2022/11/21 11:26:50;;;;;;;2.05;0.70;;;12.30;99.90;;;;;;5054214;28;20238;-75
2022/11/21 11:29:19;;;;;;;1.45;0.60;;;12.40;99.90;;;;;;5054244;28;20169;-76
2022/11/21 11:32:24;;;;;;;2.00;0.77;;;12.50;99.90;;;;;;5043186;28;20202;-76
2022/11/21 11:34:49;;;;;;;2.92;0.70;;;12.60;99.90;;;;;;5044046;28;20212;-75
2022/11/21 11:37:15;;;;;;;1.77;0.80;;;12.50;99.90;;;;;;5039411;28;20229;-76
2022/11/21 11:40:05;;;;;;;1.17;0.70;;;12.50;99.90;;;;;;5054535;28;20239;-77
2022/11/21 11:48:27;;;;;;;1.88;0.70;;;12.30;99.90;;;;;;5038739;28;20231;-77
2022/11/21 11:51:05;;;;;;;1.25;0.90;;;12.30;99.90;;;;;;5037835;28;20186;-77
2022/11/21 11:53:33;;;;;;;2.00;0.85;;;12.40;99.90;;;;;;5049002;28;20186;-75
2022/11/21 11:56:15;;;;;;;1.02;0.75;;;12.50;99.90;;;;;;5038900;28;20174;-75
2022/11/21 11:58:54;;;;;;;1.83;0.88;;;12.60;99.90;;;;;;5051520;28;20212;-76
2022/11/21 12:01:26;;;;;;;2.13;1.10;;;12.80;99.90;;;;;;5057668;28;20193;-76
2022/11/21 12:04:08;;;;;;;1.77;0.90;;;13.00;99.90;;;;;;5064238;28;20200;-74
2022/11/21 12:06:42;;;;;;;2.75;1.00;;;13.10;99.90;;;;;;5064608;28;20267;-77
2022/11/21 12:09:38;;;;;;;2.03;0.90;;;13.20;99.90;;;;;;5053461;28;20265;-76
2022/11/21 12:12:08;;;;;;;1.33;0.85;;;13.20;99.90;;;;;;5039146;28;20209;-75
2022/11/21 12:18:01;;;;;;;1.90;1.08;;;13.30;99.90;;;;;;5046173;28;20200;-75
2022/11/21 12:20:33;;;;;;;4.45;1.10;;;13.30;99.90;;;;;;5044349;28;20193;-75
2022/11/21 12:22:59;;;;;;;3.03;1.10;;;13.30;99.90;;;;;;5037142;28;20178;-76
2022/11/21 12:25:31;;;;;;;2.60;1.10;;;13.30;99.90;;;;;;5046559;28;20463;-74
2022/11/21 12:28:00;;;;;;;1.33;0.90;;;13.30;99.90;;;;;;5051934;28;20170;-77
2022/11/21 12:30:47;;;;;;;2.42;0.75;;;13.30;99.90;;;;;;5037332;28;20185;-77
2022/11/21 12:33:23;;;;;;;1.45;0.77;;;13.20;99.90;;;;;;5056445;28;20189;-76
2022/11/21 12:36:18;;;;;;;1.98;0.80;;;13.20;99.90;;;;;;5056314;28;20176;-75
2022/11/21 12:38:53;;;;;;;2.17;0.75;;;13.20;99.90;;;;;;5045316;28;20222;-75
2022/11/21 12:45:28;;;;;;;2.22;1.05;;;13.00;99.90;;;;;;5037979;28;20228;-76
2022/11/21 12:56:47;;;;;;;1.75;0.80;;;12.90;99.90;;;;;;5051056;28;20188;-77
2022/11/21 12:59:13;;;;;;;1.52;0.70;;;12.90;99.90;;;;;;5036723;28;20190;-76
2022/11/21 13:02:15;;;;;;;1.77;0.80;;;12.80;99.90;;;;;;5047928;28;20169;-76
2022/11/21 13:04:46;;;;;;;1.88;0.88;;;12.80;99.90;;;;;;5037786;28;20252;-75
2022/11/21 13:07:12;;;;;;;3.47;1.00;;;12.80;99.90;;;;;;5050781;28;20190;-75
2022/11/21 13:09:47;;;;;;;1.33;0.75;;;12.60;99.90;;;;;;5052406;28;20272;-75
2022/11/21 13:12:52;;;;;;;1.27;0.70;;;12.50;99.90;;;;;;5036883;28;20174;-76
2022/11/21 13:15:25;;;;;;;1.88;0.80;;;12.50;99.90;;;;;;4975268;28;20172;-76
2022/11/21 13:17:58;;;;;;;1.90;0.80;;;12.40;99.90;;;;;;5047591;28;20255;-75
2022/11/21 13:20:37;;;;;;;2.20;0.60;;;12.30;99.90;;;;;;5036659;28;20194;-76
2022/11/21 13:23:23;;;;;;;1.50;0.80;;;12.20;99.90;;;;;;5050709;28;20193;-76
2022/11/21 13:25:49;;;;;;;1.50;0.80;;;12.10;99.90;;;;;;5051836;28;20208;-76
2022/11/21 13:28:17;;;;;;;1.88;0.77;;;12.00;99.90;;;;;;5042245;28;20173;-73
2022/11/21 13:30:59;;;;;;;1.15;0.73;;;12.00;99.90;;;;;;5036085;28;20170;-75
2022/11/21 13:33:34;;;;;;;3.00;1.02;;;11.90;99.90;;;;;;5042784;28;20177;-75
2022/11/21 13:36:02;;;;;;;2.08;1.10;;;11.90;99.90;;;;;;5036826;28;20252;-75
2022/11/21 13:38:28;;;;;;;1.92;1.00;;;11.80;99.90;;;;;;5036545;28;20202;-76
2022/11/21 13:43:41;;;;;;;2.25;1.13;;;11.80;99.90;;;;;;5043241;28;20188;-76
2022/11/21 13:46:07;;;;;;;2.65;1.15;;;11.80;99.90;;;;;;5055340;28;20177;-75
2022/11/21 13:48:57;;;;;;;2.03;1.00;;;11.80;99.90;;;;;;5054861;28;20270;-75